Time;durP1;ratioP1;P1;durP2;ratioP2;P2;SDS_P1;SDS_P2;PMS_P1;PMS_P2;Temp;Humidity;BMP_temperature;BMP_pressure;BME280_temperature;BME280_humidity;BME280_pressure;Samples;Min_cycle;Max_cycle;Signal;HPM_P1;HPM_P2
2022/10/27 00:08:47;;;;;;;0.60;0.60;;;;;;;12.68;67.90;101474.13;18306258;32;20102;-57
2022/10/27 00:18:50;;;;;;;0.50;0.50;;;;;;;12.75;67.89;101486.41;18306874;32;20137;-57
2022/10/27 00:28:54;;;;;;;0.52;0.52;;;;;;;12.74;68.82;101490.75;18305694;32;20160;-57
2022/10/27 00:38:59;;;;;;;2.30;1.23;;;;;;;12.98;68.53;101493.50;18304984;32;20116;-57
2022/10/27 00:49:06;;;;;;;0.68;0.68;;;;;;;12.92;69.21;101496.97;18306188;32;20439;-57
2022/10/27 00:59:10;;;;;;;0.55;0.52;;;;;;;12.96;69.32;101503.09;18303897;32;20132;-57
2022/10/27 01:09:14;;;;;;;1.42;1.35;;;;;;;13.11;69.19;101515.41;18304018;32;20093;-57
2022/10/27 01:19:36;;;;;;;0.30;0.30;;;;;;;13.13;69.39;101522.44;18303264;32;20093;-57
2022/10/27 01:30:04;;;;;;;0.65;0.50;;;;;;;13.17;69.86;101516.31;18303300;32;20106;-57
2022/10/27 01:40:15;;;;;;;0.82;0.82;;;;;;;13.25;69.54;101533.84;18302513;32;20094;-57
2022/10/27 01:50:19;;;;;;;1.17;0.93;;;;;;;13.30;69.45;101526.88;18302007;32;20097;-57
2022/10/27 02:00:24;;;;;;;0.45;0.45;;;;;;;13.38;68.74;101527.81;18301646;32;20106;-57
2022/10/27 02:10:31;;;;;;;0.77;0.77;;;;;;;13.28;68.60;101536.50;18302246;32;20183;-57
2022/10/27 02:20:38;;;;;;;0.43;0.43;;;;;;;13.28;68.49;101544.38;18310108;32;20448;-57
2022/10/27 02:30:42;;;;;;;0.50;0.50;;;;;;;13.32;69.11;101544.34;18308911;32;20081;-57
2022/10/27 02:40:47;;;;;;;1.65;1.27;;;;;;;13.37;69.46;101544.38;18308359;32;20266;-57
2022/10/27 02:50:50;;;;;;;1.62;1.45;;;;;;;13.32;69.10;101551.38;18308191;32;20689;-57
2022/10/27 03:00:55;;;;;;;0.82;0.82;;;;;;;13.34;68.67;101548.75;18307650;32;20089;-57
2022/10/27 03:10:58;;;;;;;0.55;0.55;;;;;;;13.18;68.78;101560.06;18307919;32;20089;-57
2022/10/27 03:21:03;;;;;;;0.50;0.50;;;;;;;13.17;69.25;101560.91;18266783;32;20093;-57
2022/10/27 03:31:07;;;;;;;2.53;1.25;;;;;;;13.34;69.15;101554.00;18255690;32;155018;-58
2022/10/27 03:41:11;;;;;;;0.70;0.70;;;;;;;13.18;69.86;101565.28;18255216;32;20371;-57
2022/10/27 03:51:14;;;;;;;0.90;0.90;;;;;;;13.41;69.55;101563.62;18243435;32;20102;-57
2022/10/27 04:01:19;;;;;;;1.08;1.08;;;;;;;13.49;69.37;101569.81;18243242;32;20154;-57
2022/10/27 04:11:22;;;;;;;2.50;0.85;;;;;;;13.40;70.26;101570.66;18243080;32;20453;-57
2022/10/27 04:21:27;;;;;;;0.73;0.73;;;;;;;13.66;69.67;101575.16;18243645;32;20121;-57
2022/10/27 04:31:30;;;;;;;0.60;0.60;;;;;;;13.77;69.84;101584.81;18267009;32;20457;-58
2022/10/27 04:41:34;;;;;;;0.62;0.47;;;;;;;13.97;69.82;101593.63;18267005;32;20089;-57
2022/10/27 04:51:37;;;;;;;0.22;0.22;;;;;;;14.02;70.07;101602.38;18241897;32;20093;-57
2022/10/27 05:01:42;;;;;;;1.05;1.02;;;;;;;14.02;70.37;101602.38;18285438;32;20132;-57
2022/10/27 05:11:45;;;;;;;1.40;1.30;;;;;;;14.19;69.89;101611.19;18304040;32;20371;-57
2022/10/27 05:21:49;;;;;;;0.55;0.45;;;;;;;14.35;69.47;101612.09;18304921;32;20155;-57
2022/10/27 05:31:54;;;;;;;0.50;0.50;;;;;;;14.36;69.70;101622.59;18303163;32;20157;-57
2022/10/27 05:41:59;;;;;;;1.48;0.55;;;;;;;14.37;69.98;101629.63;18302051;32;20102;-57
2022/10/27 05:52:02;;;;;;;0.80;0.80;;;;;;;14.53;69.74;101641.00;18300114;32;20112;-57
2022/10/27 06:02:06;;;;;;;0.50;0.50;;;;;;;14.65;70.51;101649.78;18299520;32;20093;-57
2022/10/27 06:12:09;;;;;;;0.43;0.43;;;;;;;14.79;69.88;101663.81;18300525;32;20113;-57
2022/10/27 06:22:14;;;;;;;0.70;0.70;;;;;;;14.83;70.01;101665.59;18298646;32;20128;-57
2022/10/27 06:32:19;;;;;;;1.85;1.25;;;;;;;15.02;69.85;101675.22;18298307;32;20112;-57
2022/10/27 06:42:24;;;;;;;0.70;0.40;;;;;;;15.11;70.13;101696.25;18248456;32;20093;-57
2022/10/27 06:52:27;;;;;;;0.73;0.45;;;;;;;15.32;69.82;101712.91;18296502;32;20343;-57
2022/10/27 07:02:32;;;;;;;1.83;1.15;;;;;;;15.39;69.96;101712.91;18301954;32;20690;-58
2022/10/27 07:12:35;;;;;;;0.55;0.40;;;;;;;15.48;70.30;101722.53;18264759;32;20130;-57
2022/10/27 07:22:41;;;;;;;0.37;0.37;;;;;;;15.70;70.55;101742.69;18244167;32;20109;-57
2022/10/27 07:32:44;;;;;;;0.30;0.30;;;;;;;16.00;70.13;101740.88;18271673;32;20513;-58
2022/10/27 07:42:50;;;;;;;0.30;0.30;;;;;;;15.71;71.15;101766.38;18260785;32;20160;-57
2022/10/27 07:52:54;;;;;;;0.45;0.45;;;;;;;15.61;71.54;101773.41;18276038;32;20104;-58
2022/10/27 08:03:00;;;;;;;0.82;0.82;;;;;;;16.03;70.21;101775.97;18277353;32;20093;-57
2022/10/27 08:13:04;;;;;;;0.30;0.30;;;;;;;16.06;69.77;101794.41;18255619;32;20098;-57
2022/10/27 08:23:12;;;;;;;0.20;0.20;;;;;;;16.31;69.30;101809.25;18268899;32;20090;-57
2022/10/27 08:33:15;;;;;;;0.50;0.50;;;;;;;16.35;69.08;101803.97;18287633;32;20124;-58
2022/10/27 08:43:37;;;;;;;0.30;0.30;;;;;;;16.23;69.59;101810.19;18295156;32;20097;-57
2022/10/27 08:53:41;;;;;;;0.30;0.30;;;;;;;16.45;69.05;101811.84;18292766;32;20378;-57
2022/10/27 09:03:58;;;;;;;0.30;0.30;;;;;;;16.41;68.58;101813.63;18302160;32;20104;-57
2022/10/27 09:14:08;;;;;;;0.35;0.30;;;;;;;16.56;68.07;101819.69;18299781;32;20339;-57
2022/10/27 09:24:15;;;;;;;1.03;1.03;;;;;;;16.54;68.20;101816.19;18298492;32;20116;-57
2022/10/27 09:34:23;;;;;;;0.70;0.70;;;;;;;15.86;70.99;101826.03;18300629;32;20120;-57
2022/10/27 09:44:28;;;;;;;1.55;0.70;;;;;;;15.44;72.39;101826.06;18301561;32;20135;-58
2022/10/27 09:54:33;;;;;;;0.30;0.30;;;;;;;15.31;73.54;101819.00;18285988;32;20108;-58
2022/10/27 10:04:44;;;;;;;0.98;0.88;;;;;;;15.38;73.75;101832.19;18296406;32;20396;-58
2022/10/27 10:14:48;;;;;;;1.02;0.62;;;;;;;15.59;72.91;101827.81;18297518;32;20160;-57
2022/10/27 10:24:52;;;;;;;1.77;0.90;;;;;;;15.47;72.81;101836.56;18296774;32;20166;-57
2022/10/27 10:34:56;;;;;;;1.42;0.70;;;;;;;16.22;70.03;101836.50;18299472;32;20113;-57
2022/10/27 10:45:10;;;;;;;1.05;0.70;;;;;;;16.53;68.85;101840.81;18306358;32;20148;-57
2022/10/27 10:55:25;;;;;;;0.93;0.88;;;;;;;16.70;68.51;101833.72;18305013;32;20124;-58
2022/10/27 11:05:32;;;;;;;0.80;0.75;;;;;;;15.59;72.08;101829.53;18304791;32;20398;-58
2022/10/27 11:15:40;;;;;;;0.25;0.25;;;;;;;15.62;72.85;101835.69;18310019;32;20764;-58
2022/10/27 11:25:45;;;;;;;0.20;0.20;;;;;;;15.72;72.31;101827.78;18345568;32;20378;-58
2022/10/27 11:35:54;;;;;;;0.85;0.85;;;;;;;16.62;68.96;101825.81;18366849;32;20158;-58
2022/10/27 11:46:03;;;;;;;0.55;0.55;;;;;;;16.76;68.47;101816.97;18302742;32;20094;-57
2022/10/27 11:56:39;;;;;;;0.82;0.28;;;;;;;16.80;67.98;101809.94;18308709;32;20133;-58
2022/10/27 12:06:48;;;;;;;3.35;0.77;;;;;;;17.14;66.34;101801.81;18020554;32;20172;-58
2022/10/27 12:16:56;;;;;;;0.43;0.43;;;;;;;17.32;65.78;101795.53;17982644;32;20469;-57
2022/10/27 12:27:06;;;;;;;1.20;0.65;;;;;;;16.67;68.22;101786.25;17983915;33;20170;-58
2022/10/27 12:37:15;;;;;;;4.62;1.40;;;;;;;16.85;67.35;101776.47;18098689;32;20192;-57
2022/10/27 12:47:34;;;;;;;0.95;0.57;;;;;;;16.13;70.01;101789.13;18304996;32;20107;-58
2022/10/27 12:57:47;;;;;;;1.48;0.95;;;;;;;16.48;69.43;101786.34;18304074;32;20089;-57
2022/10/27 13:08:07;;;;;;;0.62;0.57;;;;;;;16.47;69.35;101789.00;18303693;32;20136;-57
2022/10/27 13:18:20;;;;;;;0.62;0.40;;;;;;;17.02;67.27;101782.56;18305075;32;20164;-57
2022/10/27 13:28:28;;;;;;;1.27;0.80;;;;;;;16.19;70.26;101783.84;18289428;32;20093;-57
2022/10/27 13:38:32;;;;;;;1.50;1.37;;;;;;;15.12;74.60;101790.94;18287338;32;20092;-57
2022/10/27 13:48:45;;;;;;;1.08;0.55;;;;;;;16.39;70.23;101798.69;18302569;32;20139;-57
2022/10/27 13:58:55;;;;;;;0.65;0.30;;;;;;;16.36;70.29;101794.31;18290797;32;20113;-58
2022/10/27 14:09:19;;;;;;;0.40;0.40;;;;;;;16.05;71.55;101797.91;18261078;32;20089;-57
2022/10/27 14:19:24;;;;;;;0.32;0.30;;;;;;;17.05;67.61;101785.16;18295927;32;20093;-58
2022/10/27 14:29:29;;;;;;;2.25;0.57;;;;;;;16.99;67.66;101787.81;18308488;32;20125;-58
2022/10/27 14:39:37;;;;;;;0.30;0.30;;;;;;;17.34;66.27;101789.34;18307377;32;20098;-58
2022/10/27 14:49:45;;;;;;;0.30;0.30;;;;;;;17.41;66.06;101791.94;18308093;32;20102;-58
2022/10/27 14:59:48;;;;;;;0.35;0.35;;;;;;;17.30;65.80;101787.62;18293777;32;20101;-57
2022/10/27 15:09:52;;;;;;;2.28;0.40;;;;;;;17.49;65.83;101795.38;18306692;32;20082;-58
2022/10/27 15:19:57;;;;;;;1.02;0.40;;;;;;;17.51;65.70;101792.75;18288792;32;20153;-57
2022/10/27 15:30:02;;;;;;;0.20;0.20;;;;;;;17.50;65.62;101791.84;18305923;32;20097;-58
2022/10/27 15:40:30;;;;;;;1.55;0.95;;;;;;;17.47;65.71;101794.53;18306040;32;20144;-58
2022/10/27 15:50:37;;;;;;;0.13;0.13;;;;;;;17.47;65.79;101791.88;18306658;32;20098;-58
2022/10/27 16:00:40;;;;;;;0.62;0.35;;;;;;;17.37;65.90;101800.78;18292177;32;20120;-58
2022/10/27 16:10:45;;;;;;;1.10;0.75;;;;;;;17.32;65.95;101792.91;18305661;32;20656;-58
2022/10/27 16:20:49;;;;;;;0.75;0.65;;;;;;;17.28;66.32;101804.34;18303733;32;20412;-59
2022/10/27 16:30:53;;;;;;;1.10;0.80;;;;;;;17.09;66.81;101806.25;18305348;32;20125;-58
2022/10/27 16:40:56;;;;;;;0.82;0.65;;;;;;;17.20;66.50;101807.91;18304790;32;20101;-58
2022/10/27 16:51:02;;;;;;;2.60;0.82;;;;;;;17.10;66.86;101806.22;18305049;32;20092;-58
2022/10/27 17:01:06;;;;;;;0.25;0.25;;;;;;;17.08;67.08;101812.44;18304536;32;20449;-58
2022/10/27 17:11:12;;;;;;;2.83;1.48;;;;;;;17.05;67.11;101816.81;18304371;32;20109;-58
2022/10/27 17:21:15;;;;;;;0.70;0.32;;;;;;;17.09;66.98;101836.13;18304109;32;20133;-57
2022/10/27 17:31:20;;;;;;;0.75;0.75;;;;;;;17.01;67.23;101832.66;18290222;32;20386;-57
2022/10/27 17:41:26;;;;;;;0.73;0.73;;;;;;;16.78;68.08;101836.28;18286285;32;20139;-58
2022/10/27 17:51:32;;;;;;;2.92;0.95;;;;;;;16.91;67.74;101848.53;18302965;32;20106;-58
2022/10/27 18:01:37;;;;;;;0.85;0.85;;;;;;;17.10;66.79;101847.59;18282692;32;20102;-58
2022/10/27 18:11:44;;;;;;;1.55;1.23;;;;;;;16.98;66.79;101849.38;18230554;32;20134;-58
2022/10/27 18:21:48;;;;;;;0.52;0.52;;;;;;;16.98;66.88;101849.38;18246398;32;20105;-58
2022/10/27 18:31:52;;;;;;;7.87;1.05;;;;;;;16.98;67.02;101845.84;18281995;32;20142;-59
2022/10/27 18:41:56;;;;;;;4.80;1.33;;;;;;;16.93;67.28;101851.16;18285603;32;20773;-59
2022/10/27 18:52:06;;;;;;;0.37;0.37;;;;;;;16.85;67.28;101853.84;18284810;32;20093;-59
2022/10/27 19:02:10;;;;;;;0.22;0.22;;;;;;;16.94;66.63;101857.31;18307740;32;20085;-58
2022/10/27 19:12:15;;;;;;;0.95;0.70;;;;;;;16.94;66.54;101855.53;18307887;32;20097;-59
2022/10/27 19:22:20;;;;;;;0.50;0.45;;;;;;;16.86;66.80;101854.72;18307701;32;20094;-59
2022/10/27 19:32:24;;;;;;;0.20;0.20;;;;;;;16.90;66.69;101852.03;18293490;32;20107;-59
2022/10/27 19:42:28;;;;;;;1.55;0.95;;;;;;;16.90;66.73;101867.87;18293707;32;20137;-59
2022/10/27 19:52:34;;;;;;;6.12;0.98;;;;;;;16.85;66.65;101881.97;18242593;32;20108;-59
2022/10/27 20:02:37;;;;;;;0.20;0.20;;;;;;;16.77;66.78;101885.50;18242773;32;20113;-59
2022/10/27 20:12:42;;;;;;;0.93;0.88;;;;;;;16.57;67.19;101890.00;18243439;32;20106;-59
2022/10/27 20:22:45;;;;;;;0.52;0.52;;;;;;;16.68;66.79;101887.31;18242793;32;20454;-59
2022/10/27 20:32:52;;;;;;;1.08;1.00;;;;;;;16.60;66.81;101887.37;18243456;32;20108;-59
2022/10/27 20:42:56;;;;;;;0.40;0.40;;;;;;;16.47;66.90;101887.37;18264562;32;20114;-59
2022/10/27 20:53:00;;;;;;;3.30;0.80;;;;;;;16.52;66.90;101884.72;18251121;32;20128;-59
2022/10/27 21:03:03;;;;;;;0.30;0.30;;;;;;;15.94;68.40;101890.13;18242060;32;20145;-59
2022/10/27 21:13:09;;;;;;;1.08;0.65;;;;;;;16.26;67.15;101890.09;18241664;32;20393;-59
2022/10/27 21:23:12;;;;;;;0.95;0.50;;;;;;;15.54;69.34;101890.06;18240114;32;20152;-58
2022/10/27 21:33:16;;;;;;;0.32;0.32;;;;;;;16.28;67.17;101888.31;18227251;32;20093;-58
2022/10/27 21:43:20;;;;;;;0.20;0.20;;;;;;;15.82;68.72;101898.00;18290652;32;20464;-59
2022/10/27 21:53:24;;;;;;;0.70;0.70;;;;;;;15.56;69.38;101897.97;18251385;32;20431;-59
2022/10/27 22:03:27;;;;;;;0.50;0.50;;;;;;;16.27;67.11;101897.09;18238879;32;20094;-58
2022/10/27 22:13:32;;;;;;;0.55;0.52;;;;;;;16.20;67.40;101904.16;18238339;32;20121;-59
2022/10/27 22:23:35;;;;;;;0.30;0.30;;;;;;;16.35;67.00;101906.72;18237651;32;20164;-58
2022/10/27 22:33:40;;;;;;;0.88;0.52;;;;;;;16.22;67.28;101897.13;18242218;32;20102;-59
2022/10/27 22:43:47;;;;;;;0.45;0.45;;;;;;;16.30;67.10;101902.34;18245315;32;20120;-59
2022/10/27 22:53:53;;;;;;;0.20;0.20;;;;;;;16.32;66.93;101903.25;18246492;32;20417;-58
2022/10/27 23:03:58;;;;;;;2.00;0.50;;;;;;;16.30;67.03;101905.00;18257302;32;20419;-57
2022/10/27 23:14:02;;;;;;;3.80;1.15;;;;;;;16.06;67.80;101906.81;18307818;32;20401;-57
2022/10/27 23:24:06;;;;;;;0.60;0.55;;;;;;;15.22;71.11;101907.59;18307533;32;20159;-58
2022/10/27 23:34:12;;;;;;;0.50;0.28;;;;;;;16.00;67.95;101907.69;18307197;32;20120;-58
2022/10/27 23:44:15;;;;;;;0.47;0.40;;;;;;;16.17;67.54;101906.75;18307092;32;20094;-58
2022/10/27 23:54:19;;;;;;;0.50;0.50;;;;;;;15.92;68.32;101907.66;18293724;32;20145;-58
